Time;durP1;ratioP1;P1;durP2;ratioP2;P2;SDS_P1;SDS_P2;PMS_P1;PMS_P2;Temp;Humidity;BMP_temperature;BMP_pressure;BME280_temperature;BME280_humidity;BME280_pressure;Samples;Min_cycle;Max_cycle;Signal;HPM_P1;HPM_P2
2022/04/13 00:01:45;;;;;;;3.97;3.67;;;;;;;21.99;24.56;95279.53;6175670;28;106933;-57
2022/04/13 00:04:47;;;;;;;4.90;4.17;;;;;;;22.00;24.43;95281.88;6171207;28;107627;-58
2022/04/13 00:07:49;;;;;;;4.23;3.90;;;;;;;21.99;24.65;95267.00;6165630;28;106999;-58
2022/04/13 00:10:50;;;;;;;4.50;4.17;;;;;;;22.00;24.66;95281.88;6175609;28;106641;-58
2022/04/13 00:13:52;;;;;;;4.80;4.40;;;;;;;22.00;24.35;95287.22;6174358;28;109029;-59
2022/04/13 00:16:54;;;;;;;4.20;3.80;;;;;;;21.99;24.42;95282.97;6168479;28;106555;-58
2022/04/13 00:19:57;;;;;;;6.57;3.90;;;;;;;21.98;24.14;95278.75;6156190;28;107676;-58
2022/04/13 00:22:58;;;;;;;5.10;4.13;;;;;;;22.01;23.94;95275.50;6157960;28;107135;-57
2022/04/13 00:26:01;;;;;;;4.33;3.93;;;;;;;22.03;23.87;95273.31;6187613;28;107599;-58
2022/04/13 00:29:03;;;;;;;4.13;3.83;;;;;;;22.04;23.82;95266.91;6167597;28;107896;-57
2022/04/13 00:32:06;;;;;;;3.90;3.60;;;;;;;22.04;23.76;95266.91;6159634;28;107307;-57
2022/04/13 00:35:08;;;;;;;3.83;3.53;;;;;;;22.05;23.59;95265.81;6185815;28;106629;-57
2022/04/13 00:38:10;;;;;;;4.20;3.90;;;;;;;22.04;24.59;95268.78;6186785;28;107102;-57
2022/04/13 00:41:12;;;;;;;4.07;3.60;;;;;;;22.02;23.87;95270.97;6177746;28;106650;-57
2022/04/13 00:44:14;;;;;;;3.80;3.50;;;;;;;22.00;24.21;95255.25;6149698;28;106662;-59
2022/04/13 00:47:18;;;;;;;3.17;2.90;;;;;;;22.02;24.28;95269.09;6162130;28;106713;-59
2022/04/13 00:50:21;;;;;;;3.97;3.63;;;;;;;22.01;24.09;95267.50;6162782;28;107631;-57
2022/04/13 00:53:24;;;;;;;3.83;3.53;;;;;;;21.99;24.07;95280.31;6161693;28;106434;-58
2022/04/13 00:56:29;;;;;;;3.87;3.57;;;;;;;22.01;24.53;95269.34;6157035;28;108318;-57
2022/04/13 00:59:31;;;;;;;3.93;3.53;;;;;;;21.99;24.25;95275.00;6186261;28;107625;-57
2022/04/13 01:02:36;;;;;;;4.13;3.40;;;;;;;21.98;24.24;95277.94;6177014;28;108146;-58
2022/04/13 01:05:39;;;;;;;3.53;3.23;;;;;;;21.96;24.14;95278.25;6165602;28;106684;-59
2022/04/13 01:08:42;;;;;;;3.50;3.20;;;;;;;21.97;24.67;95276.38;6177391;28;108008;-57
2022/04/13 01:11:44;;;;;;;3.90;3.60;;;;;;;21.97;24.14;95282.50;6161378;28;107625;-61
2022/04/13 01:14:46;;;;;;;3.73;3.43;;;;;;;21.97;24.06;95279.03;6165822;28;106825;-59
2022/04/13 01:17:48;;;;;;;3.80;3.30;;;;;;;21.98;23.89;95277.94;6175324;28;107627;-57
2022/04/13 01:20:52;;;;;;;3.30;3.07;;;;;;;21.95;24.16;95278.56;6186844;28;106745;-58
2022/04/13 01:23:54;;;;;;;4.10;2.70;;;;;;;21.94;23.97;95272.44;6161189;28;107561;-57
2022/04/13 01:26:56;;;;;;;3.20;2.97;;;;;;;21.92;24.57;95273.84;6169260;28;108385;-61
2022/04/13 01:29:58;;;;;;;3.10;2.80;;;;;;;21.93;24.53;95278.84;6150270;28;107840;-58
2022/04/13 01:33:00;;;;;;;3.17;2.97;;;;;;;21.89;24.59;95279.75;6160929;28;107488;-59
2022/04/13 01:36:02;;;;;;;3.47;3.17;;;;;;;21.91;23.75;95273.03;6177496;28;106892;-58
2022/04/13 01:39:06;;;;;;;4.30;2.97;;;;;;;21.91;24.30;95278.38;6167830;28;106703;-58
2022/04/13 01:42:08;;;;;;;4.00;3.60;;;;;;;21.91;24.27;95277.59;6171570;28;107530;-57
2022/04/13 01:45:10;;;;;;;2.77;2.50;;;;;;;21.91;24.28;95273.03;6169937;28;107702;-58
2022/04/13 01:48:11;;;;;;;2.83;2.63;;;;;;;21.88;24.33;95276.31;6185862;28;106815;-59
2022/04/13 01:51:14;;;;;;;2.67;2.13;;;;;;;21.86;24.56;95273.16;6175331;28;107655;-60
2022/04/13 01:54:16;;;;;;;3.57;3.03;;;;;;;21.85;24.40;95271.59;6181492;28;106523;-58
2022/04/13 01:57:19;;;;;;;3.03;2.67;;;;;;;21.86;24.14;95270.50;6164229;28;107718;-59
2022/04/13 02:00:21;;;;;;;2.67;2.47;;;;;;;21.87;24.33;95260.63;6182569;28;106831;-58
2022/04/13 02:03:24;;;;;;;3.27;2.97;;;;;;;21.87;23.65;95264.06;6148418;28;107741;-61
2022/04/13 02:06:26;;;;;;;3.00;2.70;;;;;;;21.85;24.44;95266.25;6182968;28;107083;-58
2022/04/13 02:09:28;;;;;;;3.33;3.03;;;;;;;21.83;24.21;95270.28;6185366;28;107748;-59
2022/04/13 02:12:30;;;;;;;3.40;3.10;;;;;;;21.78;23.50;95257.81;6168272;28;107026;-59
2022/04/13 02:15:32;;;;;;;2.90;2.70;;;;;;;21.83;23.80;95263.06;6174340;28;106753;-58
2022/04/13 02:18:34;;;;;;;3.40;3.00;;;;;;;21.84;23.97;95267.31;6184053;28;108190;-59
2022/04/13 02:21:35;;;;;;;3.47;2.80;;;;;;;21.87;23.22;95269.41;6183059;28;107699;-59
2022/04/13 02:24:39;;;;;;;3.30;3.00;;;;;;;21.88;23.94;95262.97;6165120;28;107852;-58
2022/04/13 02:27:42;;;;;;;3.73;2.93;;;;;;;21.90;23.65;95265.34;6179703;28;107946;-58
2022/04/13 02:30:44;;;;;;;3.60;3.23;;;;;;;21.89;24.03;95258.44;6175607;28;106946;-57
2022/04/13 02:33:51;;;;;;;3.50;3.20;;;;;;;21.87;24.33;95258.75;6161445;28;106633;-59
2022/04/13 02:36:52;;;;;;;3.00;2.70;;;;;;;21.85;24.10;95260.94;6157306;28;106789;-58
2022/04/13 02:39:54;;;;;;;3.40;3.10;;;;;;;21.86;23.89;95256.38;6167905;28;106975;-58
2022/04/13 02:42:56;;;;;;;3.30;3.10;;;;;;;21.85;24.11;95255.59;6162842;28;107400;-57
2022/04/13 02:45:58;;;;;;;4.90;2.67;;;;;;;21.85;24.31;95252.94;6177284;28;107602;-58
2022/04/13 02:49:00;;;;;;;3.37;3.10;;;;;;;21.85;24.12;95262.81;6173747;28;106708;-58
2022/04/13 02:52:02;;;;;;;3.30;3.03;;;;;;;21.83;24.39;95255.06;6169192;28;106558;-57
2022/04/13 02:55:04;;;;;;;3.73;2.93;;;;;;;21.84;24.33;95255.88;6165201;28;107791;-58
2022/04/13 02:58:06;;;;;;;3.50;3.20;;;;;;;21.81;24.50;95258.00;6159989;28;107679;-57
2022/04/13 03:01:09;;;;;;;3.50;3.20;;;;;;;21.81;24.02;95265.22;6164445;28;107693;-58
2022/04/13 03:04:11;;;;;;;3.50;3.10;;;;;;;21.82;24.03;95269.50;6174321;28;106611;-59
2022/04/13 03:07:15;;;;;;;3.30;3.00;;;;;;;21.83;23.94;95268.41;6170068;28;106457;-57
2022/04/13 03:10:17;;;;;;;3.57;3.20;;;;;;;21.91;23.66;95273.03;6177240;28;106648;-59
2022/04/13 03:13:18;;;;;;;4.43;3.53;;;;;;;21.96;23.75;95270.25;6178610;28;106680;-58
2022/04/13 03:16:20;;;;;;;3.80;3.13;;;;;;;21.83;24.31;95268.41;6184946;28;106980;-58
2022/04/13 03:19:22;;;;;;;3.00;2.73;;;;;;;21.47;24.45;95269.09;6169332;28;106805;-57
2022/04/13 03:22:24;;;;;;;4.20;3.60;;;;;;;21.42;24.47;95273.72;6151418;28;106582;-58
2022/04/13 03:25:26;;;;;;;3.70;3.40;;;;;;;21.24;24.14;95291.34;6163410;28;106920;-59
2022/04/13 03:28:28;;;;;;;3.90;3.60;;;;;;;21.22;24.11;95285.53;6170459;28;107759;-58
2022/04/13 03:31:29;;;;;;;3.47;3.17;;;;;;;21.12;24.13;95283.84;6163855;28;106861;-57
2022/04/13 03:34:31;;;;;;;3.23;2.93;;;;;;;21.03;24.26;95279.47;6163031;28;107546;-59
2022/04/13 03:37:33;;;;;;;4.13;3.20;;;;;;;20.91;24.42;95277.28;6164752;28;106694;-57
2022/04/13 03:40:35;;;;;;;3.80;3.07;;;;;;;20.80;24.61;95279.28;6163310;28;108179;-57
2022/04/13 03:43:37;;;;;;;5.57;3.20;;;;;;;20.58;24.56;95282.56;6181201;28;106846;-60
2022/04/13 03:46:39;;;;;;;4.40;3.30;;;;;;;20.47;24.89;95285.69;6153674;28;107055;-59
2022/04/13 03:49:41;;;;;;;5.10;3.77;;;;;;;20.48;25.36;95285.38;6163705;28;108045;-58
2022/04/13 03:52:43;;;;;;;5.97;3.63;;;;;;;20.44;25.60;95291.56;6171764;28;107336;-57
2022/04/13 03:55:44;;;;;;;5.53;4.00;;;;;;;20.47;26.08;95289.13;6160932;28;108560;-60
2022/04/13 03:58:46;;;;;;;6.33;4.03;;;;;;;20.61;26.08;95299.81;6156415;28;106967;-60
2022/04/13 04:01:48;;;;;;;4.37;3.13;;;;;;;20.80;26.63;95302.44;6159276;28;106881;-60
2022/04/13 04:04:50;;;;;;;4.90;4.40;;;;;;;21.00;26.48;95301.31;6153654;28;107685;-60
2022/04/13 04:07:51;;;;;;;6.03;4.20;;;;;;;21.06;25.89;95300.97;6151912;28;106842;-59
2022/04/13 04:10:54;;;;;;;4.73;3.90;;;;;;;21.12;26.25;95313.09;6161715;28;106958;-60
2022/04/13 04:13:56;;;;;;;6.20;4.60;;;;;;;21.04;26.33;95305.78;6172674;28;107256;-60
2022/04/13 04:16:57;;;;;;;5.43;3.97;;;;;;;21.00;27.28;95306.63;6160059;28;106433;-60
2022/04/13 04:19:59;;;;;;;6.90;3.87;;;;;;;21.09;27.89;95313.69;6157927;28;106770;-57
2022/04/13 04:23:01;;;;;;;4.57;3.23;;;;;;;21.06;27.00;95321.47;6162931;28;107327;-59
2022/04/13 04:26:04;;;;;;;6.93;4.40;;;;;;;21.04;27.12;95318.28;6162849;28;106920;-58
2022/04/13 04:29:06;;;;;;;4.00;3.60;;;;;;;21.00;27.36;95326.06;6161990;28;106839;-58
2022/04/13 04:32:08;;;;;;;5.70;3.73;;;;;;;20.97;27.34;95323.97;6152293;28;108012;-58
2022/04/13 04:35:10;;;;;;;4.23;3.50;;;;;;;21.00;27.30;95341.22;6162729;28;106715;-58
2022/04/13 04:38:13;;;;;;;5.23;3.90;;;;;;;21.00;27.18;95338.56;6162981;28;106971;-58
2022/04/13 04:41:15;;;;;;;6.30;3.60;;;;;;;20.98;26.90;95346.84;6157328;28;107045;-61
2022/04/13 04:44:17;;;;;;;5.70;3.43;;;;;;;21.02;26.93;95349.72;6155793;28;106871;-58
2022/04/13 04:47:19;;;;;;;8.23;3.90;;;;;;;21.04;26.84;95360.88;6160317;28;106532;-58
2022/04/13 04:50:23;;;;;;;4.60;3.40;;;;;;;21.02;26.89;95357.72;6159844;28;106897;-58
2022/04/13 04:53:24;;;;;;;3.60;3.30;;;;;;;21.00;26.87;95365.94;6149315;28;107939;-58
2022/04/13 04:56:27;;;;;;;3.63;3.30;;;;;;;21.00;26.68;95362.50;6159932;28;106740;-58
2022/04/13 04:59:29;;;;;;;3.90;3.50;;;;;;;21.02;26.79;95363.81;6161618;28;106944;-57
2022/04/13 05:02:31;;;;;;;5.07;3.90;;;;;;;20.98;26.82;95367.31;6162372;28;106879;-58
2022/04/13 05:05:32;;;;;;;3.90;3.60;;;;;;;21.00;26.80;95370.47;6151499;28;106842;-57
2022/04/13 05:08:34;;;;;;;3.90;3.60;;;;;;;21.02;26.76;95376.34;6162775;28;108007;-57
2022/04/13 05:11:36;;;;;;;4.10;3.67;;;;;;;21.03;26.84;95380.56;6161943;28;107890;-61
2022/04/13 05:14:38;;;;;;;4.13;3.73;;;;;;;21.00;26.58;95381.13;6161748;28;106533;-58
2022/04/13 05:17:40;;;;;;;3.90;3.50;;;;;;;21.04;26.71;95385.59;6152129;28;107609;-58
2022/04/13 05:20:42;;;;;;;4.10;3.70;;;;;;;21.03;26.58;95388.56;6161472;28;107086;-58
2022/04/13 05:23:44;;;;;;;4.47;4.07;;;;;;;21.03;26.75;95386.69;6162104;28;107541;-57
2022/04/13 05:26:46;;;;;;;3.73;3.43;;;;;;;21.05;26.70;95386.41;6153864;28;106903;-61
2022/04/13 05:29:47;;;;;;;4.20;3.80;;;;;;;21.02;26.55;95392.28;6159720;28;106651;-58
2022/04/13 05:32:50;;;;;;;5.07;4.50;;;;;;;21.02;26.48;95400.28;6160600;28;107636;-58
2022/04/13 05:35:52;;;;;;;4.73;4.23;;;;;;;21.00;26.60;95391.78;6161273;28;106848;-57
2022/04/13 05:38:54;;;;;;;4.10;3.80;;;;;;;21.02;26.54;95392.28;6149410;28;106617;-58
2022/04/13 05:41:56;;;;;;;5.50;3.50;;;;;;;21.06;26.80;95395.97;6161283;28;106864;-57
2022/04/13 05:44:58;;;;;;;3.80;3.50;;;;;;;21.11;26.66;95393.22;6161485;28;106646;-58
2022/04/13 05:48:00;;;;;;;4.03;3.30;;;;;;;21.23;26.50;95390.13;6161339;28;106858;-58
2022/04/13 05:51:02;;;;;;;4.37;3.40;;;;;;;21.32;26.36;95391.81;6149309;28;107130;-58
2022/04/13 05:54:04;;;;;;;3.70;3.40;;;;;;;21.44;26.04;95386.03;6160827;28;106758;-58
2022/04/13 05:57:10;;;;;;;3.53;3.20;;;;;;;21.49;26.10;95394.72;6161321;28;107588;-59
2022/04/13 06:00:12;;;;;;;4.63;3.57;;;;;;;21.58;25.88;95396.72;6157725;28;107731;-59
2022/04/13 06:03:14;;;;;;;3.83;3.43;;;;;;;21.68;25.99;95402.66;6152964;28;106865;-58
2022/04/13 06:06:36;;;;;;;4.47;3.60;;;;;;;21.79;25.84;95405.91;6161107;28;106378;-57
2022/04/13 06:09:37;;;;;;;3.70;3.40;;;;;;;21.87;25.88;95402.63;6161154;28;106724;-57
2022/04/13 06:12:39;;;;;;;4.10;3.70;;;;;;;21.98;25.74;95406.66;6150031;28;107821;-59
2022/04/13 06:15:42;;;;;;;4.77;3.30;;;;;;;22.01;25.60;95397.25;6161622;28;107527;-57
2022/04/13 06:18:44;;;;;;;4.10;3.70;;;;;;;22.13;25.90;95407.44;6160344;28;107488;-57
2022/04/13 06:21:46;;;;;;;3.87;3.30;;;;;;;22.20;25.38;95399.84;6160845;28;107651;-57
2022/04/13 06:24:51;;;;;;;3.80;3.50;;;;;;;22.26;25.50;95406.66;6149852;28;106797;-59
2022/04/13 06:27:53;;;;;;;3.60;3.20;;;;;;;22.33;25.67;95402.47;6160340;28;106758;-59
2022/04/13 06:30:55;;;;;;;3.33;3.03;;;;;;;22.39;25.74;95403.97;6160954;28;107376;-59
2022/04/13 06:33:57;;;;;;;3.73;3.33;;;;;;;22.46;25.30;95405.44;6160357;28;107338;-59
2022/04/13 06:36:58;;;;;;;4.23;3.23;;;;;;;22.53;25.61;95408.50;6150470;28;107485;-58
2022/04/13 06:40:00;;;;;;;3.40;3.10;;;;;;;22.58;25.58;95403.88;6159939;28;107947;-58
2022/04/13 06:43:02;;;;;;;3.80;3.40;;;;;;;22.64;25.30;95405.34;6160313;28;107067;-58
2022/04/13 06:46:04;;;;;;;3.57;3.23;;;;;;;22.69;25.56;95407.91;6155025;28;106780;-58
2022/04/13 06:49:06;;;;;;;3.97;3.27;;;;;;;22.74;24.91;95404.34;6155049;28;107599;-58
2022/04/13 06:52:07;;;;;;;3.00;2.80;;;;;;;22.79;25.01;95403.44;6160032;28;106683;-58
2022/04/13 06:55:10;;;;;;;3.17;2.87;;;;;;;22.83;25.13;95401.72;6160179;28;107042;-59
2022/04/13 06:58:12;;;;;;;3.50;3.20;;;;;;;22.89;25.27;95404.00;6149937;28;107810;-59
2022/04/13 07:01:13;;;;;;;3.63;3.33;;;;;;;22.94;25.46;95401.19;6160101;28;106416;-58
2022/04/13 07:04:15;;;;;;;3.50;3.20;;;;;;;22.98;25.33;95398.72;6159720;28;106767;-58
2022/04/13 07:07:17;;;;;;;3.47;3.17;;;;;;;23.05;25.22;95400.97;6160219;28;106944;-57
2022/04/13 07:10:19;;;;;;;4.10;3.37;;;;;;;23.04;25.01;95397.53;6150375;28;107462;-58
2022/04/13 07:13:21;;;;;;;3.10;2.77;;;;;;;23.10;24.86;95406.19;6160165;28;106988;-58
2022/04/13 07:16:23;;;;;;;5.00;3.30;;;;;;;23.12;24.85;95404.00;6159754;28;106699;-58
2022/04/13 07:19:24;;;;;;;3.83;3.43;;;;;;;23.16;25.00;95400.41;6159129;28;106602;-60
2022/04/13 07:22:26;;;;;;;3.60;3.33;;;;;;;23.18;24.91;95403.56;6149447;28;107453;-58
2022/04/13 07:25:28;;;;;;;3.80;3.50;;;;;;;23.21;25.33;95402.97;6159338;28;106770;-59
2022/04/13 07:28:30;;;;;;;3.73;3.43;;;;;;;23.24;24.90;95399.69;6160053;28;107285;-58
2022/04/13 07:31:33;;;;;;;4.60;4.20;;;;;;;23.25;24.98;95403.94;6154488;28;107938;-58
2022/04/13 07:34:36;;;;;;;4.50;4.10;;;;;;;23.30;24.98;95409.19;6153600;28;106683;-58
2022/04/13 07:37:42;;;;;;;3.30;3.10;;;;;;;23.33;25.20;95407.00;6157677;28;106903;-59
2022/04/13 07:40:44;;;;;;;3.73;3.43;;;;;;;23.34;24.89;95406.69;6159733;28;107500;-59
2022/04/13 07:43:51;;;;;;;4.10;3.80;;;;;;;23.38;25.26;95407.69;6148280;28;107632;-59
2022/04/13 07:46:52;;;;;;;4.20;3.90;;;;;;;23.39;25.16;95403.13;6159645;28;107681;-59
2022/04/13 07:49:58;;;;;;;3.70;3.40;;;;;;;23.40;25.49;95396.69;6158995;28;107871;-59
2022/04/13 07:53:00;;;;;;;4.37;4.00;;;;;;;23.42;25.33;95400.63;6159101;28;106938;-58
2022/04/13 07:56:03;;;;;;;4.43;4.13;;;;;;;23.46;24.90;95401.59;6146885;28;109799;-59
2022/04/13 07:59:05;;;;;;;6.03;5.53;;;;;;;23.47;25.33;95394.38;6157702;28;106914;-58
2022/04/13 08:02:08;;;;;;;4.40;4.00;;;;;;;23.49;25.33;95395.63;6159390;28;107510;-59
2022/04/13 08:05:12;;;;;;;5.17;4.77;;;;;;;23.50;25.00;95391.06;6159118;28;107595;-62
2022/04/13 08:08:14;;;;;;;4.63;4.27;;;;;;;23.50;25.28;95391.06;6157167;28;106905;-58
2022/04/13 08:11:15;;;;;;;5.03;4.63;;;;;;;23.53;25.21;95398.50;6162998;28;106616;-58
2022/04/13 08:14:17;;;;;;;5.07;4.67;;;;;;;23.53;25.13;95393.94;6162746;28;106625;-59
2022/04/13 08:17:19;;;;;;;4.80;4.40;;;;;;;23.57;25.11;95396.78;6151960;28;107826;-59
2022/04/13 08:20:21;;;;;;;5.33;4.93;;;;;;;23.56;25.37;95401.34;6162487;28;107672;-59
2022/04/13 08:23:23;;;;;;;4.60;4.20;;;;;;;23.59;25.61;95402.59;6162560;28;108942;-59
2022/04/13 08:26:24;;;;;;;5.40;5.00;;;;;;;23.58;25.20;95398.38;6162818;28;107603;-59
2022/04/13 08:29:26;;;;;;;5.50;5.00;;;;;;;23.59;25.01;95395.38;6151201;28;106663;-60
2022/04/13 08:32:28;;;;;;;5.77;5.27;;;;;;;23.61;25.02;95392.41;6162366;28;107764;-59
2022/04/13 08:35:30;;;;;;;5.00;4.60;;;;;;;23.62;25.66;95393.19;6162769;28;106832;-60
2022/04/13 08:38:32;;;;;;;5.37;4.97;;;;;;;23.62;25.05;95390.53;6162882;28;107613;-60
2022/04/13 08:41:39;;;;;;;5.07;4.67;;;;;;;23.63;25.31;95392.88;6151004;28;106821;-61
2022/04/13 08:45:07;;;;;;;5.13;4.70;;;;;;;23.61;25.65;95387.06;6162746;28;107800;-60
2022/04/13 08:48:12;;;;;;;6.30;5.80;;;;;;;23.62;25.60;95385.19;6162307;28;107874;-60
2022/04/13 08:51:18;;;;;;;6.40;5.87;;;;;;;23.62;25.66;95379.84;6151710;28;107292;-62
2022/04/13 08:54:26;;;;;;;6.10;5.60;;;;;;;23.63;25.50;95384.88;6161099;28;106899;-59
2022/04/13 08:57:29;;;;;;;5.67;5.27;;;;;;;23.61;25.34;95379.03;6162118;28;106590;-56
2022/04/13 09:00:34;;;;;;;6.27;5.77;;;;;;;23.65;25.66;95376.53;6162154;28;106649;-59
2022/04/13 09:03:44;;;;;;;5.93;5.43;;;;;;;23.63;25.47;95376.84;6151189;28;107375;-59
2022/04/13 09:06:47;;;;;;;6.13;5.63;;;;;;;23.62;25.71;95382.50;6160567;28;106693;-58
2022/04/13 09:09:53;;;;;;;6.10;5.60;;;;;;;23.61;25.45;95365.69;6161620;28;106870;-59
2022/04/13 09:12:56;;;;;;;6.13;5.63;;;;;;;23.61;25.50;95360.34;6162229;28;106513;-59
2022/04/13 09:16:00;;;;;;;7.10;6.50;;;;;;;23.63;25.72;95360.81;6151200;28;106626;-59
2022/04/13 09:19:02;;;;;;;6.27;5.77;;;;;;;23.63;25.65;95363.50;6161411;28;107657;-60
2022/04/13 09:22:05;;;;;;;6.70;6.20;;;;;;;23.60;25.84;95348.09;6161765;28;107576;-59
2022/04/13 09:25:08;;;;;;;6.53;6.03;;;;;;;23.62;25.84;95367.25;6155705;28;106622;-59
2022/04/13 09:28:10;;;;;;;7.30;6.60;;;;;;;23.60;25.53;95359.56;6157276;28;109331;-58
2022/04/13 09:31:12;;;;;;;7.73;7.10;;;;;;;23.59;25.51;95359.88;6161411;28;107719;-60
2022/04/13 09:34:14;;;;;;;6.90;6.40;;;;;;;23.58;25.30;95342.25;6161344;28;106885;-59
2022/04/13 09:37:16;;;;;;;8.07;7.37;;;;;;;23.59;25.48;95346.50;6150138;28;106650;-59
2022/04/13 09:40:25;;;;;;;7.27;6.67;;;;;;;23.58;25.59;95339.59;6161236;28;106966;-58
2022/04/13 09:43:28;;;;;;;8.47;7.77;;;;;;;23.55;25.46;95340.22;6161542;28;107688;-58
2022/04/13 09:46:30;;;;;;;8.70;8.00;;;;;;;23.54;25.91;95342.09;6159534;28;106575;-59
2022/04/13 09:49:32;;;;;;;8.27;7.67;;;;;;;23.52;25.98;95341.63;6149833;28;106644;-59
2022/04/13 09:52:37;;;;;;;8.53;7.83;;;;;;;23.51;25.95;95347.25;6161183;28;108044;-58
2022/04/13 09:55:44;;;;;;;8.43;7.83;;;;;;;23.52;25.79;95341.63;6160123;28;106459;-58
2022/04/13 09:58:48;;;;;;;8.63;7.87;;;;;;;23.50;25.71;95327.75;6156579;28;108244;-59
2022/04/13 10:01:50;;;;;;;9.73;8.93;;;;;;;23.48;25.61;95334.50;6155885;28;107798;-58
2022/04/13 10:04:52;;;;;;;9.20;8.50;;;;;;;23.47;25.89;95322.25;6161113;28;106589;-58
2022/04/13 10:08:10;;;;;;;9.73;8.93;;;;;;;23.44;26.01;95317.53;6143395;28;107142;-61
2022/04/13 10:11:12;;;;;;;9.80;9.00;;;;;;;23.43;25.88;95316.72;6149230;28;106777;-61
2022/04/13 10:14:19;;;;;;;9.37;8.67;;;;;;;23.39;26.11;95318.44;6161233;28;107765;-58
2022/04/13 10:17:20;;;;;;;10.50;9.67;;;;;;;23.39;26.25;95326.47;6160164;28;106772;-59
2022/04/13 10:20:22;;;;;;;9.87;9.03;;;;;;;23.38;26.27;95319.53;6159304;28;106968;-58
2022/04/13 10:23:24;;;;;;;10.90;10.00;;;;;;;23.34;26.02;95313.22;6149141;28;106825;-59
2022/04/13 10:26:26;;;;;;;10.40;9.60;;;;;;;23.32;25.88;95315.41;6160545;28;108792;-59
2022/04/13 10:29:29;;;;;;;11.17;10.27;;;;;;;23.29;26.08;95300.78;6160844;28;107846;-59
2022/04/13 10:32:31;;;;;;;10.83;10.00;;;;;;;23.30;25.99;95302.38;6160392;28;106856;-58
2022/04/13 10:35:35;;;;;;;11.97;10.97;;;;;;;23.28;26.06;95307.19;6148592;28;106877;-58
2022/04/13 10:38:37;;;;;;;11.23;10.33;;;;;;;23.27;26.55;95304.84;6160123;28;107281;-59
2022/04/13 10:41:39;;;;;;;10.73;9.83;;;;;;;23.24;26.26;95302.78;6160809;28;108204;-58
2022/04/13 10:45:02;;;;;;;12.20;11.17;;;;;;;23.22;26.45;95297.75;6154845;28;107782;-60
2022/04/13 10:48:08;;;;;;;11.70;10.70;;;;;;;23.19;26.41;95293.03;6159655;28;106813;-58
2022/04/13 10:51:13;;;;;;;12.00;11.00;;;;;;;23.17;26.27;95291.75;6159728;28;106599;-59
2022/04/13 10:54:20;;;;;;;12.37;11.30;;;;;;;23.16;26.11;95285.63;6159540;28;108009;-59
2022/04/13 10:57:25;;;;;;;11.13;10.23;;;;;;;23.14;26.19;95285.13;6149648;28;106708;-59
2022/04/13 11:00:31;;;;;;;11.50;10.60;;;;;;;23.12;26.39;95282.00;6159679;28;106753;-58
2022/04/13 11:03:36;;;;;;;11.33;10.43;;;;;;;23.09;26.39;95279.16;6159860;28;106913;-59
2022/04/13 11:06:40;;;;;;;11.77;10.77;;;;;;;23.09;26.50;95279.16;6159816;28;106864;-58
2022/04/13 11:09:43;;;;;;;11.47;10.67;;;;;;;23.08;26.62;95273.03;6150191;28;107946;-59
2022/04/13 11:12:46;;;;;;;11.97;10.97;;;;;;;23.03;26.82;95270.50;6159717;28;106664;-59
2022/04/13 11:15:52;;;;;;;12.60;11.50;;;;;;;23.04;26.30;95269.41;6159053;28;106949;-58
2022/04/13 11:19:00;;;;;;;11.43;10.53;;;;;;;23.02;26.74;95268.91;6148159;28;107569;-59
2022/04/13 11:22:02;;;;;;;12.53;11.50;;;;;;;23.00;26.49;95271.09;6158983;28;106747;-58
2022/04/13 11:25:04;;;;;;;12.07;11.13;;;;;;;22.95;26.88;95260.53;6159825;28;107140;-59
2022/04/13 11:28:06;;;;;;;12.27;11.27;;;;;;;22.93;26.86;95263.50;6160033;28;107777;-59
2022/04/13 11:31:12;;;;;;;12.87;11.77;;;;;;;22.93;26.53;95263.50;6148455;28;107472;-59
2022/04/13 11:34:14;;;;;;;12.90;11.80;;;;;;;22.91;26.62;95259.59;6158514;28;107776;-58
2022/04/13 11:37:24;;;;;;;12.93;11.83;;;;;;;22.88;26.89;95257.53;6159334;28;106422;-58
2022/04/13 11:40:26;;;;;;;12.53;11.53;;;;;;;22.85;26.60;95256.25;6163583;28;106910;-61
2022/04/13 11:43:28;;;;;;;13.10;12.10;;;;;;;22.86;26.99;95249.03;6153334;28;106961;-58
2022/04/13 11:46:38;;;;;;;12.07;11.17;;;;;;;22.84;26.68;95243.19;6163006;28;108146;-59
2022/04/13 11:50:13;;;;;;;12.20;11.20;;;;;;;22.81;26.49;95246.47;6163403;28;106672;-59
2022/04/13 11:53:16;;;;;;;13.57;12.40;;;;;;;22.81;26.94;95233.13;6119197;28;107129;-59
2022/04/13 11:56:31;;;;;;;11.73;10.83;;;;;;;22.79;26.81;95240.66;6162675;28;106427;-58
2022/04/13 11:59:47;;;;;;;13.07;12.00;;;;;;;22.77;26.88;95235.63;6162762;28;106812;-58
2022/04/13 12:02:50;;;;;;;12.40;11.40;;;;;;;22.76;26.60;95230.59;6163057;28;106632;-58
2022/04/13 12:05:54;;;;;;;12.70;11.60;;;;;;;22.74;26.82;95225.59;6152199;28;107831;-58
2022/04/13 12:08:59;;;;;;;12.13;11.13;;;;;;;22.72;26.69;95214.44;6162941;28;106728;-62
2022/04/13 12:12:02;;;;;;;12.20;11.20;;;;;;;22.71;26.81;95212.84;6163198;28;106991;-58
2022/04/13 12:15:04;;;;;;;11.57;10.67;;;;;;;22.69;26.83;95218.50;6157693;28;106833;-59
2022/04/13 12:18:08;;;;;;;13.67;12.57;;;;;;;22.63;27.21;95203.69;6156746;28;106554;-59
2022/04/13 12:21:13;;;;;;;13.27;12.10;;;;;;;22.67;27.19;95210.00;6162039;28;106729;-59
2022/04/13 12:24:14;;;;;;;12.63;11.47;;;;;;;22.66;26.87;95202.28;6162919;28;106888;-59
2022/04/13 12:27:18;;;;;;;12.73;11.67;;;;;;;22.66;27.23;95197.75;6151532;28;107289;-62
2022/04/13 12:30:19;;;;;;;12.20;11.20;;;;;;;22.65;27.00;95195.38;6162548;28;107776;-58
2022/04/13 12:33:23;;;;;;;13.50;11.07;;;;;;;22.64;27.00;95197.28;6162674;28;107612;-59
2022/04/13 12:36:24;;;;;;;12.37;11.37;;;;;;;22.63;27.26;95185.03;6161415;28;106995;-58
2022/04/13 12:39:29;;;;;;;12.50;11.23;;;;;;;22.62;27.29;95188.00;6152093;28;107778;-60
2022/04/13 12:42:33;;;;;;;11.87;10.97;;;;;;;22.61;27.02;95181.09;6162192;28;106486;-58
2022/04/13 12:45:35;;;;;;;13.40;12.23;;;;;;;22.59;26.99;95183.28;6161954;28;107152;-58
2022/04/13 12:48:37;;;;;;;11.90;10.90;;;;;;;22.58;27.35;95179.81;6161847;28;106732;-59
2022/04/13 12:51:41;;;;;;;12.13;11.03;;;;;;;22.57;27.42;95174.81;6150700;28;107354;-58
2022/04/13 12:54:42;;;;;;;12.10;11.00;;;;;;;22.55;27.01;95164.41;6161721;28;107015;-58
2022/04/13 12:57:44;;;;;;;11.53;10.60;;;;;;;22.53;27.35;95166.59;6162432;28;107676;-58
2022/04/13 13:00:50;;;;;;;10.90;9.90;;;;;;;22.53;27.53;95160.47;6156471;28;107217;-59
2022/04/13 13:03:53;;;;;;;13.30;12.03;;;;;;;22.53;27.24;95158.59;6158849;28;106616;-58
2022/04/13 13:07:04;;;;;;;11.17;10.30;;;;;;;22.53;27.12;95155.94;6161423;28;107364;-58
2022/04/13 13:10:07;;;;;;;11.60;10.70;;;;;;;22.51;27.43;95152.75;6162079;28;106784;-59
2022/04/13 13:13:17;;;;;;;12.70;11.67;;;;;;;22.51;27.27;95147.41;6150615;28;106977;-60
2022/04/13 13:16:37;;;;;;;11.70;10.77;;;;;;;22.51;27.01;95143.97;6161628;28;106634;-59
2022/04/13 13:19:39;;;;;;;11.23;10.33;;;;;;;22.51;27.27;95142.09;6161525;28;106690;-58
2022/04/13 13:22:46;;;;;;;11.47;10.60;;;;;;;22.51;27.16;95138.63;6161479;28;107595;-58
2022/04/13 13:25:47;;;;;;;12.57;11.47;;;;;;;22.51;27.65;95141.31;6150581;28;106840;-59
2022/04/13 13:28:49;;;;;;;12.30;11.30;;;;;;;22.49;27.42;95133.59;6160594;28;106879;-58
2022/04/13 13:31:51;;;;;;;11.40;10.40;;;;;;;22.47;27.63;95127.78;6161982;28;106968;-59
2022/04/13 13:34:58;;;;;;;10.93;10.03;;;;;;;22.48;27.41;95121.38;6154675;28;106748;-58
2022/04/13 13:38:11;;;;;;;11.80;10.87;;;;;;;22.47;27.50;95116.34;6159533;28;107906;-58
2022/04/13 13:41:13;;;;;;;11.83;10.83;;;;;;;22.48;27.38;95118.69;6161370;28;107733;-58
2022/04/13 13:44:24;;;;;;;11.73;10.73;;;;;;;22.41;27.41;95105.03;6161001;28;106683;-58
2022/04/13 13:47:27;;;;;;;12.00;11.00;;;;;;;22.48;27.10;95110.69;6150304;28;109547;-58
2022/04/13 13:50:30;;;;;;;10.80;9.90;;;;;;;22.47;27.43;95101.13;6160605;28;107050;-58
2022/04/13 13:53:32;;;;;;;11.60;10.70;;;;;;;22.47;27.77;95109.13;6161182;28;106645;-59
2022/04/13 13:56:34;;;;;;;11.33;10.50;;;;;;;22.46;27.61;95102.22;6160882;28;106640;-58
2022/04/13 13:59:36;;;;;;;11.47;10.47;;;;;;;22.44;27.74;95099.09;6149106;28;106633;-59
2022/04/13 14:02:37;;;;;;;11.67;10.70;;;;;;;22.45;27.56;95105.97;6161006;28;107932;-59
2022/04/13 14:05:41;;;;;;;11.60;10.70;;;;;;;22.45;27.77;95099.88;6160273;28;106845;-58
2022/04/13 14:08:42;;;;;;;11.23;10.43;;;;;;;22.44;27.27;95096.41;6155439;28;107074;-59